createdAt,value
2023-04-04T00:07:35.774Z,3.33
2023-04-04T00:13:00.350Z,3.60
2023-04-04T00:18:00.828Z,3.90
2023-04-04T00:23:13.318Z,3.20
2023-04-04T00:28:16.064Z,3.83
2023-04-04T00:33:20.421Z,3.43
2023-04-04T00:38:47.803Z,3.33
2023-04-04T00:44:02.380Z,3.40
2023-04-04T00:49:09.865Z,2.83
2023-04-04T00:54:19.456Z,3.10
2023-04-04T00:59:31.158Z,3.30
2023-04-04T01:04:51.867Z,4.60
2023-04-04T01:10:17.343Z,3.53
2023-04-04T01:15:21.251Z,2.73
2023-04-04T01:20:28.264Z,3.30
2023-04-04T01:25:34.878Z,3.37
2023-04-04T01:30:38.567Z,3.37
2023-04-04T01:36:07.086Z,3.83
2023-04-04T01:41:10.932Z,3.40
2023-04-04T01:51:42.385Z,3.50
2023-04-04T01:56:44.384Z,3.57
2023-04-04T02:02:04.702Z,3.40
2023-04-04T02:07:09.455Z,2.60
2023-04-04T02:12:17.826Z,3.17
2023-04-04T02:17:43.230Z,3.00
2023-04-04T02:22:55.356Z,3.13
2023-04-04T02:28:07.109Z,3.73
2023-04-04T02:33:27.345Z,3.23
2023-04-04T02:38:31.095Z,3.80
2023-04-04T02:43:47.873Z,3.37
2023-04-04T02:48:53.073Z,3.00
2023-04-04T02:54:03.276Z,4.57
2023-04-04T02:59:07.833Z,3.50
2023-04-04T03:10:30.476Z,2.97
2023-04-04T03:15:32.443Z,3.57
2023-04-04T03:20:34.482Z,4.17
2023-04-04T03:25:37.343Z,4.57
2023-04-04T03:30:44.115Z,4.73
2023-04-04T03:35:48.397Z,3.90
2023-04-04T03:46:41.300Z,4.27
2023-04-04T03:51:50.894Z,5.60
2023-04-04T03:57:00.368Z,6.33
2023-04-04T04:02:05.494Z,6.00
2023-04-04T04:07:15.230Z,5.67
2023-04-04T04:12:23.800Z,5.10
2023-04-04T04:17:28.806Z,4.40
2023-04-04T04:22:33.813Z,4.60
2023-04-04T04:27:37.166Z,4.07
2023-04-04T04:32:39.165Z,4.27
2023-04-04T04:37:41.087Z,4.60
2023-04-04T04:42:48.629Z,4.13
2023-04-04T04:47:53.093Z,5.17
2023-04-04T04:52:57.450Z,4.13
2023-04-04T04:57:59.386Z,4.63
2023-04-04T05:03:09.919Z,4.90
2023-04-04T05:08:15.943Z,5.60
2023-04-04T05:13:29.024Z,5.57
2023-04-04T05:24:09.216Z,5.10
2023-04-04T05:29:37.401Z,7.40
2023-04-04T05:34:39.187Z,9.63
2023-04-04T05:39:43.935Z,14.03
2023-04-04T05:44:45.815Z,10.83
2023-04-04T05:55:19.442Z,14.30
2023-04-04T06:00:24.206Z,9.30
2023-04-04T06:05:35.455Z,12.00
2023-04-04T06:16:50.055Z,11.63
2023-04-04T06:21:52.993Z,8.43
2023-04-04T06:32:30.375Z,5.93
2023-04-04T06:37:55.678Z,5.30
2023-04-04T06:43:07.061Z,4.37
2023-04-04T06:53:53.032Z,7.00
2023-04-04T06:59:20.443Z,6.03
2023-04-04T07:04:26.027Z,6.87
2023-04-04T07:09:29.608Z,4.87
2023-04-04T07:14:33.827Z,3.77
2023-04-04T07:19:40.829Z,4.37
2023-04-04T07:25:08.795Z,3.57
2023-04-04T07:42:26.709Z,3.03
2023-04-04T07:47:10.601Z,2.60
2023-04-04T07:52:12.614Z,2.97
2023-04-04T07:57:17.294Z,2.10
2023-04-04T08:02:19.037Z,1.60
2023-04-04T08:13:39.616Z,2.53
2023-04-04T08:24:08.518Z,2.13
2023-04-04T08:29:10.373Z,1.70
2023-04-04T08:34:17.651Z,1.10
2023-04-04T08:39:41.912Z,1.77
2023-04-04T08:50:47.087Z,1.57
2023-04-04T08:55:51.689Z,1.90
2023-04-04T09:00:58.146Z,1.80
2023-04-04T09:11:46.842Z,2.00
2023-04-04T09:16:48.746Z,2.13
2023-04-04T09:21:51.148Z,3.03
2023-04-04T09:27:20.733Z,2.43
2023-04-04T09:32:25.036Z,2.00
2023-04-04T09:37:35.296Z,2.47
2023-04-04T09:42:39.359Z,2.73
2023-04-04T09:48:37.606Z,2.70
2023-04-04T09:54:28.251Z,2.43
2023-04-04T09:59:45.303Z,3.07
2023-04-04T10:15:52.700Z,2.17
2023-04-04T10:21:12.248Z,2.13
2023-04-04T10:26:27.488Z,2.40
2023-04-04T10:31:34.353Z,2.37
2023-04-04T10:38:08.209Z,2.07
2023-04-04T10:48:21.259Z,2.93
2023-04-04T10:53:25.516Z,2.13
2023-04-04T10:58:30.541Z,1.63
2023-04-04T11:03:37.937Z,1.90
2023-04-04T11:08:42.818Z,1.97
2023-04-04T11:13:59.714Z,2.07
2023-04-04T11:19:09.193Z,2.20
2023-04-04T11:24:19.095Z,2.07
2023-04-04T11:29:35.905Z,2.27
2023-04-04T11:34:40.854Z,2.13
2023-04-04T11:40:06.917Z,1.80
2023-04-04T11:45:42.667Z,2.00
2023-04-04T11:50:51.296Z,2.70
2023-04-04T11:55:53.620Z,2.77
2023-04-04T12:00:55.817Z,2.20
2023-04-04T12:05:57.829Z,1.93
2023-04-04T12:11:05.041Z,2.27
2023-04-04T12:16:33.420Z,2.57
2023-04-04T12:21:38.581Z,2.30
2023-04-04T12:26:58.966Z,2.80
2023-04-04T12:32:00.836Z,2.60
2023-04-04T12:37:04.074Z,2.97
2023-04-04T12:42:06.276Z,2.80
2023-04-04T12:47:18.865Z,2.50
2023-04-04T12:52:38.435Z,1.90
2023-04-04T12:57:45.084Z,3.00
2023-04-04T13:02:49.924Z,2.80
2023-04-04T13:07:56.206Z,3.00
2023-04-04T13:13:04.477Z,2.67
2023-04-04T13:18:21.833Z,2.73
2023-04-04T13:23:23.876Z,3.37
2023-04-04T13:28:33.432Z,3.80
2023-04-04T13:33:39.364Z,3.67
2023-04-04T13:38:43.303Z,2.97
2023-04-04T13:43:49.676Z,3.50
2023-04-04T13:49:05.635Z,3.00
2023-04-04T13:54:11.760Z,2.70
2023-04-04T13:59:16.769Z,2.97
2023-04-04T14:09:49.279Z,2.93
2023-04-04T14:14:51.204Z,2.60
2023-04-04T14:19:53.081Z,3.23
2023-04-04T14:25:03.339Z,3.00
2023-04-04T14:30:05.873Z,3.10
2023-04-04T14:35:07.952Z,2.87
2023-04-04T14:40:10.087Z,3.43
2023-04-04T14:45:13.473Z,3.33
2023-04-04T14:50:15.501Z,2.70
2023-04-04T14:55:20.812Z,3.20
2023-04-04T15:00:25.566Z,3.13
2023-04-04T15:05:27.511Z,2.50
2023-04-04T15:10:31.826Z,3.20
2023-04-04T15:15:36.498Z,3.00
2023-04-04T15:21:03.328Z,2.47
2023-04-04T15:26:08.506Z,2.73
2023-04-04T15:31:14.161Z,3.03
2023-04-04T15:36:19.348Z,3.00
2023-04-04T15:41:43.705Z,3.77
2023-04-04T15:53:14.991Z,3.17
2023-04-04T15:58:41.768Z,2.90
2023-04-04T16:04:03.938Z,3.93
2023-04-04T16:09:08.073Z,3.07
2023-04-04T16:14:17.521Z,2.97
2023-04-04T16:19:20.109Z,2.70
2023-04-04T16:24:22.051Z,3.20
2023-04-04T16:29:23.914Z,3.07
2023-04-04T16:34:28.822Z,3.53
2023-04-04T17:42:26.482Z,7.10
2023-04-04T17:48:39.640Z,7.33
2023-04-04T18:00:08.277Z,4.63
2023-04-04T18:06:02.174Z,4.23
2023-04-04T19:02:32.546Z,3.57
2023-04-04T22:07:33.708Z,3.80
2023-04-04T22:12:29.117Z,4.27
2023-04-04T22:18:09.592Z,3.50
2023-04-04T22:23:35.691Z,4.17
2023-04-04T22:28:40.576Z,3.80
2023-04-04T22:34:15.009Z,4.43
2023-04-04T22:39:32.753Z,4.30
2023-04-04T22:44:39.971Z,4.23
2023-04-04T22:50:13.618Z,3.53
2023-04-04T22:55:39.790Z,4.70
2023-04-04T23:01:12.963Z,4.23
2023-04-04T23:11:35.384Z,4.33
2023-04-04T23:16:47.489Z,4.33
2023-04-04T23:22:09.907Z,4.60
2023-04-04T23:27:40.271Z,4.17
2023-04-04T23:32:48.366Z,4.73
2023-04-04T23:43:36.593Z,4.40
2023-04-04T23:48:38.527Z,4.93
2023-04-04T23:53:47.277Z,4.70
2023-04-04T23:58:51.754Z,4.70
